createdAt,value
2019-02-24T00:00:53.815Z,-0.80
2019-02-24T00:03:22.282Z,-0.70
2019-02-24T00:05:51.088Z,-0.70
2019-02-24T00:08:19.692Z,-0.80
2019-02-24T00:10:48.137Z,-0.70
2019-02-24T00:13:16.619Z,-0.70
2019-02-24T00:15:45.079Z,-0.70
2019-02-24T00:18:13.584Z,-0.70
2019-02-24T00:20:42.207Z,-0.70
2019-02-24T00:23:10.726Z,-0.70
2019-02-24T00:25:39.557Z,-0.70
2019-02-24T00:28:08.034Z,-0.70
2019-02-24T00:30:36.506Z,-0.70
2019-02-24T00:33:04.999Z,-0.70
2019-02-24T00:35:33.458Z,-0.70
2019-02-24T00:38:01.987Z,-0.70
2019-02-24T00:40:30.480Z,-0.70
2019-02-24T00:42:58.944Z,-0.70
2019-02-24T00:45:27.424Z,-0.70
2019-02-24T00:47:56.191Z,-0.70
2019-02-24T00:50:24.669Z,-0.70
2019-02-24T00:52:53.587Z,-0.70
2019-02-24T00:55:22.055Z,-0.70
2019-02-24T00:57:50.541Z,-0.70
2019-02-24T01:00:19.077Z,-0.70
2019-02-24T01:02:47.576Z,-0.70
2019-02-24T01:05:16.099Z,-0.60
2019-02-24T01:07:45.183Z,-0.60
2019-02-24T01:10:13.749Z,-0.60
2019-02-24T01:12:42.551Z,-0.60
2019-02-24T01:15:11.117Z,-0.60
2019-02-24T01:17:39.571Z,-0.60
2019-02-24T01:20:09.739Z,-0.50
2019-02-24T01:22:38.285Z,-0.50
2019-02-24T01:25:07.159Z,-0.50
2019-02-24T01:27:35.718Z,-0.50
2019-02-24T01:30:04.919Z,-0.50
2019-02-24T01:32:33.688Z,-0.50
2019-02-24T01:35:02.156Z,-0.50
2019-02-24T01:37:30.635Z,-0.50
2019-02-24T01:39:59.089Z,-0.50
2019-02-24T01:42:27.572Z,-0.50
2019-02-24T01:44:56.085Z,-0.50
2019-02-24T01:47:24.865Z,-0.40
2019-02-24T01:49:53.350Z,-0.50
2019-02-24T01:52:21.836Z,-0.50
2019-02-24T01:54:50.314Z,-0.40
2019-02-24T01:57:18.785Z,-0.40
2019-02-24T01:59:47.265Z,-0.40
2019-02-24T02:02:15.767Z,-0.40
2019-02-24T02:04:44.214Z,-0.30
2019-02-24T02:07:12.708Z,-0.30
2019-02-24T02:09:41.178Z,-0.30
2019-02-24T02:12:09.901Z,-0.30
2019-02-24T02:14:38.387Z,-0.40
2019-02-24T02:17:06.849Z,-0.40
2019-02-24T02:19:35.354Z,-0.50
2019-02-24T02:22:03.876Z,-0.40
2019-02-24T02:24:32.721Z,-0.50
2019-02-24T02:27:01.217Z,-0.50
2019-02-24T02:29:29.695Z,-0.50
2019-02-24T02:31:58.168Z,-0.60
2019-02-24T02:34:26.623Z,-0.50
2019-02-24T02:36:55.107Z,-0.50
2019-02-24T02:39:23.557Z,-0.50
2019-02-24T02:41:52.053Z,-0.50
2019-02-24T02:44:20.600Z,-0.50
2019-02-24T02:46:49.144Z,-0.50
2019-02-24T02:49:17.617Z,-0.40
2019-02-24T02:51:46.088Z,-0.60
2019-02-24T02:54:14.559Z,-0.60
2019-02-24T02:56:43.019Z,-0.60
2019-02-24T02:59:11.488Z,-0.60
2019-02-24T03:01:39.962Z,-0.60
2019-02-24T03:04:08.437Z,-0.70
2019-02-24T03:06:38.535Z,-0.70
2019-02-24T03:09:08.799Z,-0.70
2019-02-24T03:11:37.351Z,-0.70
2019-02-24T03:14:05.829Z,-0.60
2019-02-24T03:16:34.307Z,-0.60
2019-02-24T03:19:02.818Z,-0.60
2019-02-24T03:21:31.313Z,-0.60
2019-02-24T03:23:59.770Z,-0.50
2019-02-24T03:26:28.662Z,-0.50
2019-02-24T03:29:03.893Z,-0.40
2019-02-24T03:31:27.423Z,-0.50
2019-02-24T03:33:55.968Z,-0.50
2019-02-24T03:36:24.553Z,0.00
2019-02-24T03:38:53.347Z,-0.50
2019-02-24T03:41:21.968Z,-0.50
2019-02-24T03:43:50.435Z,-0.50
2019-02-24T03:46:18.927Z,-0.50
2019-02-24T03:48:47.425Z,-0.50
2019-02-24T03:51:16.017Z,-0.50
2019-02-24T03:53:44.810Z,-0.50
2019-02-24T03:56:13.360Z,-0.50
2019-02-24T03:58:41.904Z,-0.50
2019-02-24T04:01:10.361Z,-0.50
2019-02-24T04:03:38.991Z,-0.50
2019-02-24T04:06:07.444Z,-0.60
2019-02-24T04:08:36.224Z,-0.60
2019-02-24T04:11:04.676Z,-0.50
2019-02-24T04:13:33.151Z,-0.50
2019-02-24T04:16:01.627Z,-0.50
2019-02-24T04:18:30.075Z,-0.60
2019-02-24T04:20:58.566Z,-0.60
2019-02-24T04:23:27.089Z,-0.60
2019-02-24T04:25:55.712Z,-0.70
2019-02-24T04:28:24.163Z,-0.70
2019-02-24T04:30:52.651Z,-0.80
2019-02-24T04:33:21.125Z,-0.70
2019-02-24T04:35:49.607Z,-0.70
2019-02-24T04:38:18.169Z,-0.60
2019-02-24T04:40:46.666Z,-0.60
2019-02-24T04:43:15.133Z,-0.60
2019-02-24T04:45:43.617Z,-0.60
2019-02-24T04:48:12.574Z,-0.50
2019-02-24T04:50:41.028Z,-0.60
2019-02-24T04:53:09.569Z,-0.70
2019-02-24T04:55:38.021Z,-0.70
2019-02-24T04:58:06.507Z,-0.60
2019-02-24T05:00:34.967Z,-0.60
2019-02-24T05:03:03.439Z,-0.60
2019-02-24T05:05:31.893Z,-0.60
2019-02-24T05:08:00.437Z,-0.60
2019-02-24T05:10:29.188Z,-0.60
2019-02-24T05:12:57.633Z,-0.60
2019-02-24T05:15:26.134Z,-0.70
2019-02-24T05:17:54.621Z,-0.70
2019-02-24T05:20:23.112Z,-0.70
2019-02-24T05:22:51.573Z,-0.80
2019-02-24T05:25:20.034Z,-0.80
2019-02-24T05:27:48.529Z,-0.80
2019-02-24T05:30:16.988Z,-0.80
2019-02-24T05:32:45.743Z,-0.80
2019-02-24T05:35:14.269Z,-0.80
2019-02-24T05:37:42.718Z,-0.80
2019-02-24T05:40:11.210Z,-0.80
2019-02-24T05:42:42.428Z,-0.80
2019-02-24T05:45:10.428Z,-0.80
2019-02-24T05:47:39.003Z,-0.80
2019-02-24T05:50:07.578Z,-0.70
2019-02-24T05:52:36.100Z,-0.70
2019-02-24T05:55:06.118Z,-0.80
2019-02-24T05:57:34.957Z,-0.80
2019-02-24T06:00:03.943Z,-0.80
2019-02-24T06:02:32.410Z,-0.70
2019-02-24T06:05:00.891Z,-0.70
2019-02-24T06:07:29.625Z,-0.70
2019-02-24T06:09:58.118Z,-0.80
2019-02-24T06:12:26.597Z,-0.90
2019-02-24T06:14:55.077Z,-0.80
2019-02-24T06:17:23.539Z,-0.80
2019-02-24T06:19:51.989Z,-0.80
2019-02-24T06:22:20.495Z,-0.80
2019-02-24T06:24:48.958Z,-0.90
2019-02-24T06:27:17.455Z,-0.90
2019-02-24T06:29:45.945Z,-1.00
2019-02-24T06:32:14.820Z,-1.00
2019-02-24T06:34:43.323Z,-1.00
2019-02-24T06:37:11.791Z,-0.90
2019-02-24T06:39:40.287Z,-0.90
2019-02-24T06:42:09.162Z,-1.00
2019-02-24T06:44:37.705Z,-0.90
2019-02-24T06:47:06.167Z,-0.90
2019-02-24T06:49:34.674Z,-0.80
2019-02-24T06:52:03.134Z,-0.90
2019-02-24T06:54:31.664Z,-0.80
2019-02-24T06:57:00.135Z,-0.80
2019-02-24T06:59:28.731Z,-0.80
2019-02-24T07:01:57.230Z,-0.70
2019-02-24T07:04:25.722Z,-0.70
2019-02-24T07:06:54.368Z,-0.60
2019-02-24T07:09:22.959Z,-0.50
2019-02-24T07:11:51.406Z,-0.50
2019-02-24T07:14:19.852Z,-0.40
2019-02-24T07:16:48.354Z,-0.30
2019-02-24T07:19:17.186Z,-0.20
2019-02-24T07:21:45.687Z,-0.10
2019-02-24T07:24:14.146Z,-0.10
2019-02-24T07:26:42.941Z,0.00
2019-02-24T07:29:11.452Z,0.00
2019-02-24T07:31:39.899Z,0.10
2019-02-24T07:34:08.380Z,0.10
2019-02-24T07:36:36.861Z,0.10
2019-02-24T07:39:05.387Z,0.20
2019-02-24T07:41:33.849Z,0.30
2019-02-24T07:44:02.380Z,0.30
2019-02-24T07:46:30.862Z,0.40
2019-02-24T07:48:59.319Z,0.30
2019-02-24T07:51:27.778Z,0.30
2019-02-24T07:53:56.555Z,0.40
2019-02-24T07:56:25.343Z,0.50
2019-02-24T07:58:53.798Z,0.60
2019-02-24T08:01:22.275Z,0.70
2019-02-24T08:03:50.992Z,0.80
2019-02-24T08:06:19.997Z,1.10
2019-02-24T08:08:48.441Z,1.30
2019-02-24T08:11:16.976Z,1.50
2019-02-24T08:13:45.446Z,1.60
2019-02-24T08:16:14.279Z,1.60
2019-02-24T08:18:49.334Z,1.70
2019-02-24T08:21:13.193Z,1.80
2019-02-24T08:23:41.728Z,1.90
2019-02-24T08:26:10.616Z,1.90
2019-02-24T08:28:39.133Z,2.00
2019-02-24T08:31:07.578Z,2.20
2019-02-24T08:33:36.077Z,2.20
2019-02-24T08:36:04.536Z,2.30
2019-02-24T08:38:33.019Z,2.40
2019-02-24T08:41:01.731Z,2.50
2019-02-24T08:43:30.237Z,2.50
2019-02-24T08:45:58.963Z,2.60
2019-02-24T08:48:27.753Z,2.70
2019-02-24T08:50:56.255Z,2.80
2019-02-24T08:53:24.779Z,2.90
2019-02-24T08:55:53.217Z,2.90
2019-02-24T08:58:21.765Z,3.00
2019-02-24T09:00:51.314Z,3.10
2019-02-24T09:03:20.174Z,3.20
2019-02-24T09:05:48.668Z,3.10
2019-02-24T09:08:17.200Z,3.20
2019-02-24T09:10:45.674Z,3.20
2019-02-24T09:13:14.139Z,3.30
2019-02-24T09:15:42.590Z,3.30
2019-02-24T09:18:11.101Z,3.40
2019-02-24T09:20:39.565Z,3.50
2019-02-24T09:23:08.025Z,3.60
2019-02-24T09:25:36.665Z,3.60
2019-02-24T09:28:05.120Z,3.70
2019-02-24T09:30:33.565Z,3.80
2019-02-24T09:33:02.044Z,4.00
2019-02-24T09:35:30.523Z,4.00
2019-02-24T09:37:58.970Z,4.00
2019-02-24T09:40:27.433Z,4.10
2019-02-24T09:42:55.958Z,4.20
2019-02-24T09:45:24.424Z,4.40
2019-02-24T09:47:52.933Z,4.50
2019-02-24T09:50:21.412Z,4.60
2019-02-24T09:52:49.873Z,4.70
2019-02-24T09:55:18.341Z,4.90
2019-02-24T09:57:46.820Z,4.80
2019-02-24T10:00:16.551Z,5.00
2019-02-24T10:02:46.753Z,5.00
2019-02-24T10:05:15.313Z,5.10
2019-02-24T10:07:43.768Z,5.20
2019-02-24T10:10:13.066Z,5.30
2019-02-24T10:12:41.783Z,5.50
2019-02-24T10:15:12.978Z,5.60
2019-02-24T10:17:41.513Z,5.70
2019-02-24T10:20:11.325Z,5.90
2019-02-24T10:22:39.854Z,6.00
2019-02-24T10:25:09.348Z,6.10
2019-02-24T10:27:37.833Z,6.20
2019-02-24T10:30:13.936Z,6.30
2019-02-24T10:32:42.401Z,6.40
2019-02-24T10:35:10.913Z,6.30
2019-02-24T10:37:39.395Z,6.50
2019-02-24T10:40:12.462Z,6.60
2019-02-24T10:42:41.214Z,6.60
2019-02-24T10:45:17.966Z,6.60
2019-02-24T10:47:46.405Z,6.60
2019-02-24T10:50:15.938Z,6.50
2019-02-24T10:52:44.445Z,6.60
2019-02-24T10:55:13.034Z,6.50
2019-02-24T10:57:41.600Z,6.50
2019-02-24T11:00:15.101Z,6.60
2019-02-24T11:02:43.576Z,6.90
2019-02-24T11:05:12.314Z,7.00
2019-02-24T11:07:40.771Z,7.00
2019-02-24T11:10:10.449Z,7.40
2019-02-24T11:12:38.964Z,7.60
2019-02-24T11:15:09.554Z,7.60
2019-02-24T11:17:38.099Z,7.80
2019-02-24T11:20:12.106Z,7.90
2019-02-24T11:22:40.949Z,7.90
2019-02-24T11:25:10.843Z,8.00
2019-02-24T11:27:39.376Z,8.20
2019-02-24T11:30:10.290Z,8.40
2019-02-24T11:32:39.073Z,8.50
2019-02-24T11:35:09.866Z,8.40
2019-02-24T11:37:38.359Z,8.30
2019-02-24T11:40:12.067Z,8.20
2019-02-24T11:42:40.521Z,8.10
2019-02-24T11:45:10.251Z,8.10
2019-02-24T11:47:38.708Z,8.10
2019-02-24T11:50:11.081Z,8.00
2019-02-24T11:52:39.627Z,8.10
2019-02-24T11:55:10.195Z,8.20
2019-02-24T11:57:38.926Z,8.30
2019-02-24T12:00:13.386Z,8.30
2019-02-24T12:02:42.076Z,8.40
2019-02-24T12:05:10.959Z,8.80
2019-02-24T12:07:39.421Z,8.80
2019-02-24T12:10:11.795Z,8.90
2019-02-24T12:12:40.417Z,8.90
2019-02-24T12:15:11.297Z,8.90
2019-02-24T12:17:39.830Z,9.10
2019-02-24T12:20:10.447Z,9.30
2019-02-24T12:22:38.897Z,9.30
2019-02-24T12:25:09.315Z,9.50
2019-02-24T12:27:37.763Z,9.50
2019-02-24T12:30:11.486Z,9.40
2019-02-24T12:32:39.964Z,9.50
2019-02-24T12:35:09.098Z,9.70
2019-02-24T12:37:37.550Z,9.80
2019-02-24T12:40:09.307Z,9.80
2019-02-24T12:42:37.786Z,9.90
2019-02-24T12:45:08.082Z,10.00
2019-02-24T12:47:36.851Z,9.80
2019-02-24T12:50:10.654Z,9.80
2019-02-24T12:52:39.111Z,9.90
2019-02-24T12:55:09.025Z,9.90
2019-02-24T12:57:37.578Z,10.00
2019-02-24T13:00:11.222Z,9.90
2019-02-24T13:02:39.758Z,9.70
2019-02-24T13:05:08.214Z,9.80
2019-02-24T13:07:36.718Z,9.80
2019-02-24T13:10:10.689Z,9.80
2019-02-24T13:12:39.137Z,9.90
2019-02-24T13:15:07.968Z,9.90
2019-02-24T13:17:36.432Z,9.90
2019-02-24T13:20:09.865Z,10.00
2019-02-24T13:22:38.463Z,9.90
2019-02-24T13:25:12.074Z,9.90
2019-02-24T13:27:40.540Z,9.80
2019-02-24T13:30:12.084Z,9.70
2019-02-24T13:32:40.837Z,9.70
2019-02-24T13:35:09.756Z,9.60
2019-02-24T13:37:38.232Z,9.60
2019-02-24T13:40:14.445Z,9.50
2019-02-24T13:42:42.967Z,9.60
2019-02-24T13:45:20.123Z,9.60
2019-02-24T13:47:48.578Z,9.60
2019-02-24T13:50:17.257Z,9.80
2019-02-24T13:52:45.867Z,9.80
2019-02-24T13:55:15.524Z,9.90
2019-02-24T13:57:44.012Z,9.90
2019-02-24T14:00:15.850Z,9.80
2019-02-24T14:02:44.309Z,9.80
2019-02-24T14:05:13.275Z,9.70
2019-02-24T14:07:41.823Z,9.70
2019-02-24T14:10:12.219Z,9.80
2019-02-24T14:12:40.685Z,9.80
2019-02-24T14:15:11.393Z,9.90
2019-02-24T14:17:39.965Z,9.90
2019-02-24T14:20:11.486Z,9.90
2019-02-24T14:22:39.949Z,10.00
2019-02-24T14:25:10.667Z,10.10
2019-02-24T14:27:39.141Z,10.10
2019-02-24T14:30:13.069Z,10.20
2019-02-24T14:32:41.505Z,10.20
2019-02-24T14:35:15.204Z,10.30
2019-02-24T14:37:43.741Z,10.30
2019-02-24T14:40:12.263Z,10.10
2019-02-24T14:42:40.759Z,10.00
2019-02-24T14:45:17.555Z,10.10
2019-02-24T14:47:46.312Z,10.10
2019-02-24T14:50:14.940Z,10.10
2019-02-24T14:52:43.469Z,10.00
2019-02-24T14:55:15.452Z,10.10
2019-02-24T14:57:44.005Z,10.10
2019-02-24T15:00:17.649Z,10.10
2019-02-24T15:02:46.401Z,10.10
2019-02-24T15:05:16.697Z,10.20
2019-02-24T15:07:45.571Z,10.10
2019-02-24T15:10:22.856Z,10.10
2019-02-24T15:12:51.328Z,10.00
2019-02-24T15:15:38.401Z,9.90
2019-02-24T15:18:06.987Z,9.80
2019-02-24T15:20:35.457Z,9.90
2019-02-24T15:23:03.910Z,9.90
2019-02-24T15:25:32.382Z,9.90
2019-02-24T15:28:00.843Z,9.90
2019-02-24T15:30:34.828Z,9.90
2019-02-24T15:33:03.371Z,9.80
2019-02-24T15:35:32.173Z,9.90
2019-02-24T15:38:00.991Z,10.00
2019-02-24T15:40:29.471Z,10.00
2019-02-24T15:42:57.956Z,10.00
2019-02-24T15:45:26.743Z,10.10
2019-02-24T15:47:55.207Z,10.00
2019-02-24T15:50:23.691Z,10.20
2019-02-24T15:52:52.223Z,10.10
2019-02-24T15:55:20.716Z,10.00
2019-02-24T15:57:49.194Z,9.90
2019-02-24T16:00:22.045Z,9.80
2019-02-24T16:02:50.526Z,9.60
2019-02-24T16:05:21.903Z,9.50
2019-02-24T16:07:50.368Z,9.50
2019-02-24T16:10:23.058Z,9.50
2019-02-24T16:12:51.547Z,9.30
2019-02-24T16:15:25.094Z,9.20
2019-02-24T16:17:53.565Z,9.20
2019-02-24T16:20:36.012Z,9.00
2019-02-24T16:23:04.467Z,9.00
2019-02-24T16:25:32.933Z,8.80
2019-02-24T16:28:01.471Z,8.70
2019-02-24T16:30:30.071Z,8.60
2019-02-24T16:32:58.515Z,8.50
2019-02-24T16:35:26.994Z,8.30
2019-02-24T16:37:55.443Z,8.30
2019-02-24T16:40:25.748Z,8.20
2019-02-24T16:42:54.226Z,8.00
2019-02-24T16:45:22.674Z,8.00
2019-02-24T16:47:51.202Z,8.00
2019-02-24T16:50:21.939Z,7.80
2019-02-24T16:52:50.423Z,7.70
2019-02-24T16:55:19.257Z,7.70
2019-02-24T16:57:47.721Z,7.60
2019-02-24T17:00:19.267Z,7.50
2019-02-24T17:02:47.833Z,7.50
2019-02-24T17:05:16.763Z,7.40
2019-02-24T17:07:45.632Z,7.30
2019-02-24T17:10:25.967Z,7.20
2019-02-24T17:12:54.464Z,7.20
2019-02-24T17:15:23.401Z,7.10
2019-02-24T17:17:51.855Z,7.10
2019-02-24T17:20:25.675Z,7.10
2019-02-24T17:22:54.157Z,7.00
2019-02-24T17:25:22.615Z,6.90
2019-02-24T17:27:51.144Z,6.90
2019-02-24T17:30:19.751Z,6.80
2019-02-24T17:32:48.285Z,6.80
2019-02-24T17:35:16.761Z,6.80
2019-02-24T17:37:45.282Z,6.50
2019-02-24T17:40:19.649Z,6.40
2019-02-24T17:42:48.317Z,6.50
2019-02-24T17:45:16.855Z,6.60
2019-02-24T17:47:45.390Z,6.40
2019-02-24T17:50:15.406Z,6.40
2019-02-24T17:52:43.932Z,6.30
2019-02-24T17:55:16.639Z,6.30
2019-02-24T17:57:45.225Z,6.30
2019-02-24T18:00:21.252Z,6.10
2019-02-24T18:02:49.955Z,5.80
2019-02-24T18:05:18.523Z,6.00
2019-02-24T18:07:47.225Z,5.90
2019-02-24T18:10:15.774Z,5.80
2019-02-24T18:12:44.236Z,5.90
2019-02-24T18:15:13.159Z,6.00
2019-02-24T18:17:41.604Z,6.10
2019-02-24T18:20:12.905Z,5.80
2019-02-24T18:22:41.359Z,5.70
2019-02-24T18:25:11.578Z,5.70
2019-02-24T18:27:40.060Z,5.70
2019-02-24T18:30:26.657Z,5.90
2019-02-24T18:32:55.213Z,6.10
2019-02-24T18:35:23.709Z,6.00
2019-02-24T18:37:52.156Z,5.80
2019-02-24T18:40:20.769Z,5.90
2019-02-24T18:42:49.228Z,5.80
2019-02-24T18:45:17.692Z,5.70
2019-02-24T18:47:46.160Z,5.70
2019-02-24T18:50:16.375Z,5.60
2019-02-24T18:52:44.867Z,5.60
2019-02-24T18:55:13.679Z,5.50
2019-02-24T18:57:42.220Z,5.50
2019-02-24T19:00:22.907Z,5.40
2019-02-24T19:02:51.370Z,5.30
2019-02-24T19:05:19.954Z,5.40
2019-02-24T19:07:48.431Z,5.30
2019-02-24T19:10:21.547Z,5.20
2019-02-24T19:12:50.276Z,5.10
2019-02-24T19:15:20.176Z,5.10
2019-02-24T19:17:48.921Z,5.10
2019-02-24T19:20:19.479Z,5.10
2019-02-24T19:22:48.068Z,5.10
2019-02-24T19:25:16.724Z,5.20
2019-02-24T19:27:45.342Z,5.10
2019-02-24T19:30:16.277Z,5.00
2019-02-24T19:32:45.095Z,5.00
2019-02-24T19:35:14.796Z,4.90
2019-02-24T19:37:43.960Z,4.90
2019-02-24T19:40:18.102Z,5.00
2019-02-24T19:42:46.635Z,5.10
2019-02-24T19:45:20.029Z,5.00
2019-02-24T19:47:48.465Z,5.00
2019-02-24T19:50:17.758Z,5.00
2019-02-24T19:52:46.307Z,5.00
2019-02-24T19:55:15.813Z,4.90
2019-02-24T19:57:44.367Z,4.90
2019-02-24T20:00:24.159Z,4.90
2019-02-24T20:02:52.790Z,4.80
2019-02-24T20:05:21.780Z,4.80
2019-02-24T20:07:50.304Z,4.70
2019-02-24T20:10:21.029Z,4.70
2019-02-24T20:12:49.947Z,4.80
2019-02-24T20:15:18.483Z,4.70
2019-02-24T20:17:46.953Z,4.60
2019-02-24T20:20:16.654Z,4.60
2019-02-24T20:22:45.165Z,4.60
2019-02-24T20:25:15.733Z,4.80
2019-02-24T20:27:44.214Z,4.70
2019-02-24T20:30:27.509Z,4.80
2019-02-24T20:32:55.987Z,4.80
2019-02-24T20:35:24.449Z,4.70
2019-02-24T20:37:53.040Z,4.70
2019-02-24T20:40:21.893Z,4.70
2019-02-24T20:42:50.421Z,4.70
2019-02-24T20:45:22.793Z,4.60
2019-02-24T20:47:51.330Z,4.70
2019-02-24T20:50:25.719Z,4.70
2019-02-24T20:52:54.530Z,4.70
2019-02-24T20:55:23.422Z,4.60
2019-02-24T20:57:51.989Z,4.60
2019-02-24T21:00:26.206Z,4.70
2019-02-24T21:02:54.663Z,4.70
2019-02-24T21:05:23.153Z,4.70
2019-02-24T21:07:51.611Z,4.70
2019-02-24T21:10:20.116Z,4.70
2019-02-24T21:12:48.598Z,4.70
2019-02-24T21:15:17.988Z,4.70
2019-02-24T21:17:46.451Z,4.80
2019-02-24T21:20:19.953Z,4.80
2019-02-24T21:22:50.491Z,4.80
2019-02-24T21:25:19.133Z,4.80
2019-02-24T21:27:47.583Z,4.80
2019-02-24T21:30:17.956Z,4.80
2019-02-24T21:32:46.414Z,4.80
2019-02-24T21:35:17.174Z,4.70
2019-02-24T21:37:45.309Z,4.80
2019-02-24T21:40:16.873Z,4.80
2019-02-24T21:42:45.387Z,4.70
2019-02-24T21:45:16.376Z,4.70
2019-02-24T21:47:45.091Z,4.70
2019-02-24T21:50:16.243Z,4.70
2019-02-24T21:52:44.870Z,4.70
2019-02-24T21:55:13.592Z,4.70
2019-02-24T21:57:42.112Z,4.60
2019-02-24T22:00:13.499Z,4.60
2019-02-24T22:02:42.052Z,4.60
2019-02-24T22:05:11.843Z,4.60
2019-02-24T22:07:40.337Z,4.50
2019-02-24T22:10:11.799Z,4.50
2019-02-24T22:12:40.325Z,4.50
2019-02-24T22:15:14.228Z,4.40
2019-02-24T22:17:42.693Z,4.40
2019-02-24T22:20:11.641Z,4.40
2019-02-24T22:22:40.353Z,4.40
2019-02-24T22:25:11.041Z,4.40
2019-02-24T22:27:39.509Z,4.40
2019-02-24T22:30:11.206Z,4.40
2019-02-24T22:32:39.650Z,4.30
2019-02-24T22:35:09.264Z,4.30
2019-02-24T22:37:37.797Z,4.30
2019-02-24T22:40:09.617Z,4.20
2019-02-24T22:42:38.146Z,4.20
2019-02-24T22:45:09.916Z,4.10
2019-02-24T22:47:38.788Z,4.10
2019-02-24T22:50:09.551Z,4.10
2019-02-24T22:52:38.017Z,4.10
2019-02-24T22:55:11.618Z,4.00
2019-02-24T22:57:40.080Z,4.00
2019-02-24T23:00:52.678Z,4.00
2019-02-24T23:03:29.835Z,4.00
2019-02-24T23:05:58.775Z,3.90
2019-02-24T23:08:27.543Z,3.90
2019-02-24T23:10:56.067Z,3.90
2019-02-24T23:13:24.612Z,3.80
2019-02-24T23:15:53.121Z,3.80
2019-02-24T23:18:21.658Z,3.70
2019-02-24T23:20:50.117Z,3.70
2019-02-24T23:23:18.577Z,3.70
2019-02-24T23:25:47.051Z,3.60
2019-02-24T23:28:15.612Z,3.60
2019-02-24T23:30:44.492Z,3.50
2019-02-24T23:33:12.930Z,3.50
2019-02-24T23:35:41.407Z,3.50
2019-02-24T23:38:10.123Z,3.40
2019-02-24T23:40:38.610Z,3.40
2019-02-24T23:43:07.132Z,3.40
2019-02-24T23:45:35.669Z,3.40
2019-02-24T23:48:04.217Z,3.30
2019-02-24T23:50:32.959Z,3.30
2019-02-24T23:53:01.415Z,3.30
2019-02-24T23:55:30.225Z,3.30
2019-02-24T23:57:59.069Z,3.30
